createdAt,value
2022-08-01T00:01:54.144Z,8.70
2022-08-01T00:04:20.541Z,8.30
2022-08-01T00:06:46.845Z,7.95
2022-08-01T00:09:23.610Z,9.32
2022-08-01T00:12:06.633Z,10.48
2022-08-01T00:14:34.154Z,8.95
2022-08-01T00:17:05.253Z,6.30
2022-08-01T00:19:34.045Z,11.02
2022-08-01T00:22:00.384Z,10.88
2022-08-01T00:24:26.684Z,10.68
2022-08-01T00:26:52.987Z,6.57
2022-08-01T00:30:10.360Z,7.15
2022-08-01T00:32:06.147Z,10.25
2022-08-01T00:34:34.113Z,7.13
2022-08-01T00:37:00.420Z,6.80
2022-08-01T00:39:26.693Z,8.25
2022-08-01T00:41:59.814Z,7.60
2022-08-01T00:44:28.142Z,6.70
2022-08-01T00:46:54.436Z,8.00
2022-08-01T00:49:20.897Z,11.73
2022-08-01T00:51:47.279Z,11.10
2022-08-01T00:54:16.818Z,6.72
2022-08-01T00:56:43.932Z,8.95
2022-08-01T00:59:10.310Z,8.20
2022-08-01T01:01:39.908Z,11.35
2022-08-01T01:04:08.547Z,8.15
2022-08-01T01:06:44.392Z,8.05
2022-08-01T01:09:30.761Z,9.82
2022-08-01T01:12:06.474Z,11.68
2022-08-01T01:14:58.366Z,9.80
2022-08-01T01:17:50.909Z,8.10
2022-08-01T01:20:18.382Z,12.18
2022-08-01T01:22:53.831Z,9.77
2022-08-01T01:25:38.438Z,9.57
2022-08-01T01:28:10.794Z,12.48
2022-08-01T01:30:39.573Z,10.98
2022-08-01T01:33:08.044Z,10.18
2022-08-01T01:35:36.696Z,11.88
2022-08-01T01:38:05.736Z,8.57
2022-08-01T01:40:32.266Z,10.65
2022-08-01T01:42:58.849Z,9.35
2022-08-01T01:45:25.509Z,11.20
2022-08-01T01:47:52.142Z,9.02
2022-08-01T01:50:20.808Z,12.68
2022-08-01T01:52:47.567Z,9.77
2022-08-01T01:55:14.243Z,11.27
2022-08-01T01:57:42.061Z,14.60
2022-08-01T02:00:09.779Z,11.90
2022-08-01T02:02:37.777Z,15.10
2022-08-01T02:05:05.071Z,12.95
2022-08-01T02:07:31.610Z,12.90
2022-08-01T02:09:58.619Z,13.18
2022-08-01T02:12:25.341Z,9.93
2022-08-01T02:14:54.306Z,9.68
2022-08-01T02:17:21.929Z,14.48
2022-08-01T02:19:48.621Z,9.93
2022-08-01T02:22:17.684Z,9.73
2022-08-01T02:25:04.273Z,11.23
2022-08-01T02:27:56.885Z,12.40
2022-08-01T02:30:25.275Z,12.02
2022-08-01T02:32:58.212Z,10.18
2022-08-01T02:35:28.027Z,10.60
2022-08-01T02:37:55.852Z,9.63
2022-08-01T02:40:22.634Z,8.82
2022-08-01T02:42:50.947Z,13.65
2022-08-01T02:45:21.436Z,13.18
2022-08-01T02:47:48.830Z,12.52
2022-08-01T02:50:15.320Z,9.90
2022-08-01T02:52:42.658Z,13.48
2022-08-01T02:55:09.896Z,13.48
2022-08-01T02:57:45.433Z,14.20
2022-08-01T03:00:20.001Z,19.23
2022-08-01T03:02:49.345Z,15.13
2022-08-01T03:05:15.971Z,14.70
2022-08-01T03:07:42.441Z,11.70
2022-08-01T03:10:09.666Z,10.43
2022-08-01T03:12:36.592Z,11.85
2022-08-01T03:15:04.649Z,9.90
2022-08-01T03:17:31.317Z,9.68
2022-08-01T03:19:59.179Z,9.25
2022-08-01T03:22:26.850Z,11.18
2022-08-01T03:24:54.204Z,11.65
2022-08-01T03:27:21.606Z,9.63
2022-08-01T03:29:49.865Z,11.32
2022-08-01T03:32:16.818Z,9.55
2022-08-01T03:34:43.577Z,8.23
2022-08-01T03:37:15.949Z,10.45
2022-08-01T03:39:47.467Z,11.13
2022-08-01T03:42:16.075Z,8.70
2022-08-01T03:44:44.453Z,8.68
2022-08-01T03:47:11.989Z,10.07
2022-08-01T03:49:43.692Z,9.70
2022-08-01T03:52:10.345Z,8.38
2022-08-01T03:54:38.279Z,8.52
2022-08-01T03:57:04.881Z,9.35
2022-08-01T03:59:31.583Z,10.77
2022-08-01T04:01:58.266Z,7.85
2022-08-01T04:04:24.898Z,12.63
2022-08-01T04:06:54.883Z,10.13
2022-08-01T04:09:22.683Z,9.50
2022-08-01T04:11:49.482Z,15.13
2022-08-01T04:14:15.818Z,7.80
2022-08-01T04:16:42.115Z,7.88
2022-08-01T04:19:11.387Z,9.57
2022-08-01T04:21:40.055Z,8.73
2022-08-01T04:24:09.588Z,10.98
2022-08-01T04:26:37.079Z,6.93
2022-08-01T04:29:05.804Z,9.48
2022-08-01T04:31:33.934Z,8.77
2022-08-01T04:34:00.461Z,5.80
2022-08-01T04:36:27.399Z,5.65
2022-08-01T04:38:56.837Z,3.85
2022-08-01T04:41:23.570Z,5.72
2022-08-01T04:43:50.074Z,6.55
2022-08-01T04:46:16.597Z,6.32
2022-08-01T04:48:43.033Z,4.18
2022-08-01T04:51:12.574Z,3.42
2022-08-01T04:53:38.861Z,4.90
2022-08-01T04:56:05.395Z,2.92
2022-08-01T04:58:32.693Z,3.55
2022-08-01T05:00:59.071Z,3.92
2022-08-01T05:03:25.352Z,4.85
2022-08-01T05:05:51.642Z,4.35
2022-08-01T05:08:17.908Z,3.50
2022-08-01T05:10:44.210Z,5.20
2022-08-01T05:13:10.523Z,4.28
2022-08-01T05:15:39.662Z,3.78
2022-08-01T05:18:08.573Z,4.97
2022-08-01T05:20:35.198Z,4.72
2022-08-01T05:23:01.487Z,3.58
2022-08-01T05:25:57.891Z,5.90
2022-08-01T05:28:14.007Z,3.38
2022-08-01T05:30:45.435Z,5.93
2022-08-01T05:33:11.710Z,3.70
2022-08-01T05:35:47.978Z,3.85
2022-08-01T05:38:16.806Z,3.53
2022-08-01T05:40:43.113Z,3.25
2022-08-01T05:43:09.415Z,4.45
2022-08-01T05:45:35.721Z,4.70
2022-08-01T05:48:02.041Z,2.88
2022-08-01T05:50:28.333Z,5.50
2022-08-01T05:52:54.766Z,2.90
2022-08-01T05:55:21.142Z,5.40
2022-08-01T05:57:47.449Z,2.83
2022-08-01T06:00:15.486Z,5.30
2022-08-01T06:02:43.405Z,3.05
2022-08-01T06:05:13.040Z,2.70
2022-08-01T06:07:40.699Z,3.17
2022-08-01T06:10:07.466Z,4.47
2022-08-01T06:12:35.733Z,3.75
2022-08-01T06:15:02.303Z,3.65
2022-08-01T06:17:28.603Z,2.85
2022-08-01T06:19:54.871Z,2.65
2022-08-01T06:22:21.290Z,3.22
2022-08-01T06:24:48.186Z,3.00
2022-08-01T06:27:22.009Z,3.05
2022-08-01T06:29:50.255Z,3.20
2022-08-01T06:32:26.322Z,4.00
2022-08-01T06:34:55.195Z,4.40
2022-08-01T06:37:23.178Z,6.38
2022-08-01T06:39:50.452Z,5.18
2022-08-01T06:42:17.017Z,3.28
2022-08-01T06:44:43.292Z,5.75
2022-08-01T06:47:09.649Z,4.47
2022-08-01T06:49:36.104Z,5.43
2022-08-01T06:52:02.722Z,4.53
2022-08-01T06:54:29.195Z,4.55
2022-08-01T06:56:55.457Z,4.47
2022-08-01T06:59:21.711Z,7.40
2022-08-01T07:01:48.004Z,4.38
2022-08-01T07:04:14.263Z,6.20
2022-08-01T07:06:40.554Z,3.72
2022-08-01T07:09:12.187Z,4.00
2022-08-01T07:11:40.305Z,5.22
2022-08-01T07:14:07.150Z,2.90
2022-08-01T07:16:35.344Z,4.75
2022-08-01T07:19:01.652Z,3.78
2022-08-01T07:21:39.341Z,6.70
2022-08-01T07:24:12.710Z,5.88
2022-08-01T07:26:40.500Z,5.78
2022-08-01T07:29:19.136Z,13.77
2022-08-01T07:31:45.427Z,9.65
2022-08-01T07:34:11.793Z,15.98
2022-08-01T07:36:38.057Z,14.57
2022-08-01T07:39:04.367Z,17.10
2022-08-01T07:41:52.763Z,15.43
2022-08-01T07:44:16.961Z,18.58
2022-08-01T07:46:44.460Z,16.17
2022-08-01T07:49:10.839Z,17.38
2022-08-01T07:51:37.213Z,11.32
2022-08-01T07:54:03.544Z,19.00
2022-08-01T07:56:29.888Z,13.10
2022-08-01T07:58:56.194Z,26.02
2022-08-01T08:01:22.962Z,17.08
2022-08-01T08:03:49.365Z,12.38
2022-08-01T08:06:15.656Z,20.30
2022-08-01T08:08:41.925Z,21.98
2022-08-01T08:11:08.685Z,17.27
2022-08-01T08:13:35.019Z,20.55
2022-08-01T08:16:01.323Z,12.35
2022-08-01T08:18:27.605Z,15.10
2022-08-01T08:20:54.125Z,19.25
2022-08-01T08:23:42.685Z,14.65
2022-08-01T08:26:10.567Z,13.27
2022-08-01T08:28:36.889Z,14.90
2022-08-01T08:31:04.343Z,12.82
2022-08-01T08:33:30.611Z,12.13
2022-08-01T08:35:57.003Z,12.52
2022-08-01T08:38:28.415Z,10.15
2022-08-01T08:40:56.635Z,9.70
2022-08-01T08:43:25.397Z,11.63
2022-08-01T08:45:58.948Z,9.48
2022-08-01T08:48:27.942Z,10.85
2022-08-01T08:50:55.562Z,17.13
2022-08-01T08:53:22.522Z,14.38
2022-08-01T08:55:55.650Z,9.75
2022-08-01T08:58:26.381Z,6.18
2022-08-01T09:00:59.942Z,11.55
2022-08-01T09:03:26.246Z,10.13
2022-08-01T09:05:52.665Z,7.13
2022-08-01T09:08:18.953Z,10.43
2022-08-01T09:10:45.234Z,10.07
2022-08-01T09:13:13.098Z,7.07
2022-08-01T09:15:51.121Z,11.05
2022-08-01T09:18:29.451Z,9.90
2022-08-01T09:21:15.230Z,9.75
2022-08-01T09:23:54.427Z,10.82
2022-08-01T09:26:41.310Z,13.52
2022-08-01T09:29:10.350Z,6.60
2022-08-01T09:31:47.534Z,8.95
2022-08-01T09:34:14.656Z,6.63
2022-08-01T09:36:45.651Z,6.75
2022-08-01T09:39:15.576Z,8.25
2022-08-01T09:41:41.949Z,4.10
2022-08-01T09:44:08.282Z,4.47
2022-08-01T09:46:35.221Z,8.02
2022-08-01T09:49:02.894Z,4.65
2022-08-01T09:51:58.812Z,4.78
2022-08-01T09:54:31.639Z,7.47
2022-08-01T09:57:08.723Z,10.63
2022-08-01T09:59:56.678Z,5.57
2022-08-01T10:02:27.963Z,9.20
2022-08-01T10:05:03.180Z,6.30
2022-08-01T10:07:43.723Z,5.70
2022-08-01T10:10:15.115Z,5.18
2022-08-01T10:12:44.476Z,7.65
2022-08-01T10:15:12.263Z,7.43
2022-08-01T10:17:50.302Z,6.18
2022-08-01T10:20:28.947Z,9.57
2022-08-01T10:22:59.066Z,7.40
2022-08-01T10:25:42.042Z,6.68
2022-08-01T10:28:14.437Z,7.35
2022-08-01T10:30:44.382Z,7.05
2022-08-01T10:33:15.253Z,7.15
2022-08-01T10:35:48.167Z,8.52
2022-08-01T10:38:15.630Z,5.13
2022-08-01T10:40:45.468Z,10.80
2022-08-01T10:43:12.516Z,5.22
2022-08-01T10:45:39.930Z,6.10
2022-08-01T10:48:25.356Z,8.20
2022-08-01T10:50:53.720Z,10.27
2022-08-01T10:53:31.584Z,5.07
2022-08-01T10:56:11.034Z,15.80
2022-08-01T10:58:42.310Z,4.28
2022-08-01T11:01:15.624Z,9.18
2022-08-01T11:04:01.362Z,10.60
2022-08-01T11:06:33.719Z,10.95
2022-08-01T11:09:01.711Z,9.32
2022-08-01T11:11:29.555Z,11.20
2022-08-01T11:14:08.179Z,10.07
2022-08-01T11:16:37.004Z,7.32
2022-08-01T11:19:04.354Z,11.25
2022-08-01T11:21:57.548Z,6.30
2022-08-01T11:24:45.971Z,5.72
2022-08-01T11:27:17.669Z,6.70
2022-08-01T11:30:07.825Z,6.97
2022-08-01T11:32:47.262Z,4.90
2022-08-01T11:35:25.790Z,6.13
2022-08-01T11:37:52.660Z,3.80
2022-08-01T11:40:26.226Z,5.28
2022-08-01T11:43:13.421Z,8.18
2022-08-01T11:45:49.879Z,6.75
